KFHU/FHU METAR and TAF weather

Enter ICAO airport designator
Station Type Date Time Source
KFHU METAR 2019/12/08 19:07 UTC NOAA

KFHU 081907Z AUTO 26009KT 8SM -RA FEW041 SCT050 OVC065 15/09 A3013 RMK AO2 RAB07 SLP160


Station Type Date Time Source
KFHU Decoded METAR 2019/12/08 19:07 UTC NOAA

Fort Huachuca, Libby AAF Ft Huachuca, AZ, United States (KFHU) 46-98N 110-20W
Dec 08, 2019 - 02:07 PM EST / 2019.12.08 1907 UTC
Wind: from the W (260 degrees) at 10 MPH (9 KT):0
Visibility: 8 mile(s):0
Sky conditions: overcast
Weather: light rain
Temperature: 59 F (15 C)
Dew Point: 48 F (9 C)
Relative Humidity: 67%
Pressure (altimeter): 30.13 in. Hg (1020 hPa)
ob: KFHU 081907Z AUTO 26009KT 8SM -RA FEW041 SCT050 OVC065 15/09 A3013 RMK AO2 RAB07 SLP160
cycle: 19

Station Type Date Time Source
KFHU TAF 2019/12/07 02:04 UTC NOAA

TAF KFHU 070200Z 0702/0808 VRB06KT 9999 FEW120 SCT200 QNH3020INS TX17/0722Z TN04/0713Z LAST NO
AMDS AFT 0706 NEXT 0902

Example: see airport list